sensor_id;sensor_type;location;lat;lon;timestamp;pressure;altitude;pressure_sealevel;temperature;humidity
8075;BME280;4080;42.676;23.372;2023-04-29T00:01:23;95159.94;;;8.14;88.60
8075;BME280;4080;42.676;23.372;2023-04-29T00:03:50;95157.09;;;8.20;88.19
8075;BME280;4080;42.676;23.372;2023-04-29T00:06:17;95153.47;;;8.26;87.81
8075;BME280;4080;42.676;23.372;2023-04-29T00:08:43;95119.16;;;8.06;87.86
8075;BME280;4080;42.676;23.372;2023-04-29T00:11:10;95157.28;;;8.35;87.21
8075;BME280;4080;42.676;23.372;2023-04-29T00:13:37;95155.22;;;8.37;87.13
8075;BME280;4080;42.676;23.372;2023-04-29T00:16:07;95160.50;;;8.43;87.11
8075;BME280;4080;42.676;23.372;2023-04-29T00:18:34;95169.47;;;8.47;86.61
8075;BME280;4080;42.676;23.372;2023-04-29T00:21:02;95167.38;;;8.49;85.72
8075;BME280;4080;42.676;23.372;2023-04-29T00:23:30;95165.53;;;8.49;86.14
8075;BME280;4080;42.676;23.372;2023-04-29T00:25:57;95176.06;;;8.49;85.67
8075;BME280;4080;42.676;23.372;2023-04-29T00:28:23;95157.28;;;8.35;85.12
8075;BME280;4080;42.676;23.372;2023-04-29T00:30:50;95168.63;;;8.41;86.35
8075;BME280;4080;42.676;23.372;2023-04-29T00:33:18;95181.50;;;8.37;87.56
8075;BME280;4080;42.676;23.372;2023-04-29T00:35:45;95166.06;;;8.24;88.38
8075;BME280;4080;42.676;23.372;2023-04-29T00:38:12;95171.88;;;8.26;90.23
8075;BME280;4080;42.676;23.372;2023-04-29T00:40:39;95174.47;;;8.21;91.61
8075;BME280;4080;42.676;23.372;2023-04-29T00:43:05;95172.59;;;8.17;92.51
8075;BME280;4080;42.676;23.372;2023-04-29T00:45:32;95152.47;;;8.00;93.33
8075;BME280;4080;42.676;23.372;2023-04-29T00:47:59;95159.91;;;8.08;93.54
8075;BME280;4080;42.676;23.372;2023-04-29T00:50:27;95130.19;;;7.81;95.20
8075;BME280;4080;42.676;23.372;2023-04-29T00:52:53;95160.16;;;8.07;95.93
8075;BME280;4080;42.676;23.372;2023-04-29T00:55:22;95153.00;;;8.02;95.92
8075;BME280;4080;42.676;23.372;2023-04-29T00:57:49;95158.75;;;7.99;97.14
8075;BME280;4080;42.676;23.372;2023-04-29T01:00:17;95098.75;;;7.64;97.60
8075;BME280;4080;42.676;23.372;2023-04-29T01:02:45;95144.97;;;7.87;98.70
8075;BME280;4080;42.676;23.372;2023-04-29T01:05:12;95139.41;;;7.84;98.40
8075;BME280;4080;42.676;23.372;2023-04-29T01:07:51;95134.66;;;7.81;99.45
8075;BME280;4080;42.676;23.372;2023-04-29T01:10:26;95132.19;;;7.69;100.00
8075;BME280;4080;42.676;23.372;2023-04-29T01:13:00;95102.03;;;7.28;100.00
8075;BME280;4080;42.676;23.372;2023-04-29T01:15:36;95129.13;;;7.55;100.00
8075;BME280;4080;42.676;23.372;2023-04-29T01:18:08;95127.81;;;7.58;100.00
8075;BME280;4080;42.676;23.372;2023-04-29T01:20:36;95130.22;;;7.59;100.00
8075;BME280;4080;42.676;23.372;2023-04-29T01:23:04;95139.63;;;7.55;100.00
8075;BME280;4080;42.676;23.372;2023-04-29T01:25:33;95125.66;;;7.50;100.00
8075;BME280;4080;42.676;23.372;2023-04-29T01:28:06;95120.09;;;7.46;100.00
8075;BME280;4080;42.676;23.372;2023-04-29T01:30:43;95132.63;;;7.39;100.00
8075;BME280;4080;42.676;23.372;2023-04-29T01:33:16;95133.31;;;7.34;100.00
8075;BME280;4080;42.676;23.372;2023-04-29T01:35:57;95129.91;;;7.34;100.00
8075;BME280;4080;42.676;23.372;2023-04-29T01:38:29;95131.72;;;7.33;100.00
8075;BME280;4080;42.676;23.372;2023-04-29T01:41:13;95114.47;;;7.15;100.00
8075;BME280;4080;42.676;23.372;2023-04-29T01:43:42;95095.81;;;7.12;100.00
8075;BME280;4080;42.676;23.372;2023-04-29T01:46:15;95112.94;;;7.20;100.00
8075;BME280;4080;42.676;23.372;2023-04-29T01:48:43;95124.28;;;7.25;100.00
8075;BME280;4080;42.676;23.372;2023-04-29T01:51:09;95124.72;;;7.17;100.00
8075;BME280;4080;42.676;23.372;2023-04-29T01:53:36;95126.50;;;7.11;100.00
8075;BME280;4080;42.676;23.372;2023-04-29T01:56:06;95117.28;;;7.09;100.00
8075;BME280;4080;42.676;23.372;2023-04-29T01:58:33;95117.44;;;7.02;100.00
8075;BME280;4080;42.676;23.372;2023-04-29T02:01:00;95086.59;;;6.71;100.00
8075;BME280;4080;42.676;23.372;2023-04-29T02:03:26;95077.00;;;6.60;100.00
8075;BME280;4080;42.676;23.372;2023-04-29T02:05:53;95118.16;;;6.76;100.00
8075;BME280;4080;42.676;23.372;2023-04-29T02:08:20;95124.56;;;6.68;100.00
8075;BME280;4080;42.676;23.372;2023-04-29T02:10:53;95123.69;;;6.63;100.00
8075;BME280;4080;42.676;23.372;2023-04-29T02:13:21;95116.97;;;6.50;100.00
8075;BME280;4080;42.676;23.372;2023-04-29T02:15:48;95126.50;;;6.56;100.00
8075;BME280;4080;42.676;23.372;2023-04-29T02:18:15;95138.00;;;6.55;100.00
8075;BME280;4080;42.676;23.372;2023-04-29T02:20:41;95128.88;;;6.58;100.00
8075;BME280;4080;42.676;23.372;2023-04-29T02:23:08;95113.06;;;6.52;100.00
8075;BME280;4080;42.676;23.372;2023-04-29T02:25:35;95124.41;;;6.58;100.00
8075;BME280;4080;42.676;23.372;2023-04-29T02:28:02;95117.28;;;6.53;100.00
8075;BME280;4080;42.676;23.372;2023-04-29T02:30:30;95122.94;;;6.45;100.00
8075;BME280;4080;42.676;23.372;2023-04-29T02:32:57;95119.16;;;6.41;100.00
8075;BME280;4080;42.676;23.372;2023-04-29T02:35:23;95125.91;;;6.37;100.00
8075;BME280;4080;42.676;23.372;2023-04-29T02:37:50;95126.88;;;6.31;100.00
8075;BME280;4080;42.676;23.372;2023-04-29T02:40:17;95127.28;;;6.23;100.00
8075;BME280;4080;42.676;23.372;2023-04-29T02:42:43;95121.16;;;6.17;100.00
8075;BME280;4080;42.676;23.372;2023-04-29T02:45:10;95119.25;;;6.13;100.00
8075;BME280;4080;42.676;23.372;2023-04-29T02:47:38;95124.72;;;6.11;100.00
8075;BME280;4080;42.676;23.372;2023-04-29T02:50:06;95118.69;;;6.11;100.00
8075;BME280;4080;42.676;23.372;2023-04-29T02:52:33;95080.22;;;5.83;100.00
8075;BME280;4080;42.676;23.372;2023-04-29T02:54:59;95126.53;;;6.11;100.00
8075;BME280;4080;42.676;23.372;2023-04-29T02:57:26;95131.78;;;6.11;100.00
8075;BME280;4080;42.676;23.372;2023-04-29T02:59:53;95136.69;;;6.07;100.00
8075;BME280;4080;42.676;23.372;2023-04-29T03:02:20;95147.97;;;6.08;100.00
8075;BME280;4080;42.676;23.372;2023-04-29T03:04:48;95153.66;;;6.05;100.00
8075;BME280;4080;42.676;23.372;2023-04-29T03:07:15;95148.44;;;6.05;100.00
8075;BME280;4080;42.676;23.372;2023-04-29T03:09:42;95143.19;;;6.05;100.00
8075;BME280;4080;42.676;23.372;2023-04-29T03:12:09;95144.06;;;6.10;100.00
8075;BME280;4080;42.676;23.372;2023-04-29T03:14:35;95144.66;;;6.12;100.00
8075;BME280;4080;42.676;23.372;2023-04-29T03:17:02;95136.06;;;6.00;100.00
8075;BME280;4080;42.676;23.372;2023-04-29T03:19:29;95143.94;;;5.88;100.00
8075;BME280;4080;42.676;23.372;2023-04-29T03:21:57;95143.72;;;5.78;100.00
8075;BME280;4080;42.676;23.372;2023-04-29T03:24:24;95146.63;;;5.65;100.00
8075;BME280;4080;42.676;23.372;2023-04-29T03:26:50;95143.13;;;5.59;100.00
8075;BME280;4080;42.676;23.372;2023-04-29T03:29:17;95140.53;;;5.48;100.00
8075;BME280;4080;42.676;23.372;2023-04-29T03:31:44;95150.09;;;5.54;100.00
8075;BME280;4080;42.676;23.372;2023-04-29T03:34:11;95164.09;;;5.48;100.00
8075;BME280;4080;42.676;23.372;2023-04-29T03:36:38;95175.91;;;5.50;100.00
8075;BME280;4080;42.676;23.372;2023-04-29T03:39:06;95171.81;;;5.54;100.00
8075;BME280;4080;42.676;23.372;2023-04-29T03:41:33;95181.69;;;5.64;100.00
8075;BME280;4080;42.676;23.372;2023-04-29T03:44:00;95172.44;;;5.73;100.00
8075;BME280;4080;42.676;23.372;2023-04-29T03:46:28;95181.53;;;5.82;100.00
8075;BME280;4080;42.676;23.372;2023-04-29T03:48:54;95179.00;;;5.87;100.00
8075;BME280;4080;42.676;23.372;2023-04-29T03:51:22;95172.66;;;5.83;100.00
8075;BME280;4080;42.676;23.372;2023-04-29T03:53:49;95175.16;;;5.78;100.00
8075;BME280;4080;42.676;23.372;2023-04-29T03:56:19;95171.97;;;5.76;100.00
8075;BME280;4080;42.676;23.372;2023-04-29T03:58:47;95171.97;;;5.76;100.00
8075;BME280;4080;42.676;23.372;2023-04-29T04:01:14;95168.09;;;5.79;100.00
8075;BME280;4080;42.676;23.372;2023-04-29T04:03:41;95159.22;;;5.91;100.00
8075;BME280;4080;42.676;23.372;2023-04-29T04:06:08;95165.50;;;6.07;100.00
8075;BME280;4080;42.676;23.372;2023-04-29T04:08:34;95167.03;;;6.20;100.00
8075;BME280;4080;42.676;23.372;2023-04-29T04:11:01;95165.38;;;6.31;100.00
8075;BME280;4080;42.676;23.372;2023-04-29T04:13:30;95151.66;;;6.23;100.00
8075;BME280;4080;42.676;23.372;2023-04-29T04:15:57;95183.75;;;6.47;100.00
8075;BME280;4080;42.676;23.372;2023-04-29T04:18:24;95173.28;;;6.47;100.00
8075;BME280;4080;42.676;23.372;2023-04-29T04:20:50;95183.44;;;6.61;100.00
8075;BME280;4080;42.676;23.372;2023-04-29T04:23:17;95184.06;;;6.68;100.00
8075;BME280;4080;42.676;23.372;2023-04-29T04:25:45;95156.13;;;6.57;100.00
8075;BME280;4080;42.676;23.372;2023-04-29T04:28:12;95179.78;;;6.78;100.00
8075;BME280;4080;42.676;23.372;2023-04-29T04:30:40;95179.38;;;6.87;100.00
8075;BME280;4080;42.676;23.372;2023-04-29T04:33:07;95174.50;;;6.95;100.00
8075;BME280;4080;42.676;23.372;2023-04-29T04:35:35;95170.47;;;7.04;100.00
8075;BME280;4080;42.676;23.372;2023-04-29T04:38:01;95164.31;;;7.15;100.00
8075;BME280;4080;42.676;23.372;2023-04-29T04:40:28;95173.09;;;7.26;100.00
8075;BME280;4080;42.676;23.372;2023-04-29T04:42:55;95175.09;;;7.36;100.00
8075;BME280;4080;42.676;23.372;2023-04-29T04:45:21;95177.34;;;7.49;100.00
8075;BME280;4080;42.676;23.372;2023-04-29T04:47:49;95179.53;;;7.57;100.00
8075;BME280;4080;42.676;23.372;2023-04-29T04:50:16;95187.81;;;7.66;100.00
8075;BME280;4080;42.676;23.372;2023-04-29T04:52:43;95188.03;;;7.64;100.00
8075;BME280;4080;42.676;23.372;2023-04-29T04:55:10;95192.72;;;7.62;100.00
8075;BME280;4080;42.676;23.372;2023-04-29T04:57:37;95190.44;;;7.66;100.00
8075;BME280;4080;42.676;23.372;2023-04-29T05:00:05;95184.78;;;7.79;100.00
8075;BME280;4080;42.676;23.372;2023-04-29T05:02:32;95176.53;;;7.92;100.00
8075;BME280;4080;42.676;23.372;2023-04-29T05:05:00;95173.81;;;8.09;100.00
8075;BME280;4080;42.676;23.372;2023-04-29T05:07:26;95168.78;;;8.29;100.00
8075;BME280;4080;42.676;23.372;2023-04-29T05:09:53;95157.63;;;8.44;100.00
8075;BME280;4080;42.676;23.372;2023-04-29T05:12:20;95171.19;;;8.63;100.00
8075;BME280;4080;42.676;23.372;2023-04-29T05:14:46;95160.19;;;8.66;100.00
8075;BME280;4080;42.676;23.372;2023-04-29T05:17:13;95155.16;;;8.64;100.00
8075;BME280;4080;42.676;23.372;2023-04-29T05:19:40;95153.38;;;8.70;100.00
8075;BME280;4080;42.676;23.372;2023-04-29T05:22:08;95151.88;;;8.84;100.00
8075;BME280;4080;42.676;23.372;2023-04-29T05:24:34;95153.03;;;8.98;100.00
8075;BME280;4080;42.676;23.372;2023-04-29T05:27:01;95138.88;;;9.10;99.92
8075;BME280;4080;42.676;23.372;2023-04-29T05:29:29;95115.94;;;9.00;100.00
8075;BME280;4080;42.676;23.372;2023-04-29T05:31:55;95136.94;;;9.37;99.35
8075;BME280;4080;42.676;23.372;2023-04-29T05:34:22;95132.97;;;9.34;98.90
8075;BME280;4080;42.676;23.372;2023-04-29T05:36:49;95149.69;;;9.65;98.12
8075;BME280;4080;42.676;23.372;2023-04-29T05:39:17;95150.81;;;9.85;96.99
8075;BME280;4080;42.676;23.372;2023-04-29T05:41:43;95149.28;;;10.09;96.76
8075;BME280;4080;42.676;23.372;2023-04-29T05:44:10;95147.78;;;10.39;94.47
8075;BME280;4080;42.676;23.372;2023-04-29T05:46:37;95147.78;;;10.69;91.10
8075;BME280;4080;42.676;23.372;2023-04-29T05:49:03;95150.16;;;10.96;89.34
8075;BME280;4080;42.676;23.372;2023-04-29T05:51:30;95141.41;;;11.21;87.70
8075;BME280;4080;42.676;23.372;2023-04-29T05:53:57;95141.59;;;11.45;86.79
8075;BME280;4080;42.676;23.372;2023-04-29T05:56:26;95150.22;;;11.71;84.49
8075;BME280;4080;42.676;23.372;2023-04-29T05:58:52;95155.41;;;12.01;82.40
8075;BME280;4080;42.676;23.372;2023-04-29T06:01:19;95158.69;;;12.27;81.39
8075;BME280;4080;42.676;23.372;2023-04-29T06:03:46;95155.06;;;12.57;78.86
8075;BME280;4080;42.676;23.372;2023-04-29T06:06:12;95122.91;;;12.74;76.31
8075;BME280;4080;42.676;23.372;2023-04-29T06:08:39;95160.88;;;13.46;73.47
8075;BME280;4080;42.676;23.372;2023-04-29T06:11:06;95157.66;;;13.97;70.76
8075;BME280;4080;42.676;23.372;2023-04-29T06:13:34;95155.81;;;14.35;67.42
8075;BME280;4080;42.676;23.372;2023-04-29T06:16:01;95118.94;;;14.34;67.16
8075;BME280;4080;42.676;23.372;2023-04-29T06:18:27;95159.22;;;14.92;66.00
8075;BME280;4080;42.676;23.372;2023-04-29T06:20:54;95154.38;;;15.27;64.11
8075;BME280;4080;42.676;23.372;2023-04-29T06:23:21;95155.41;;;15.44;62.88
8075;BME280;4080;42.676;23.372;2023-04-29T06:25:48;95161.25;;;15.74;60.14
8075;BME280;4080;42.676;23.372;2023-04-29T06:28:14;95167.25;;;15.93;58.82
8075;BME280;4080;42.676;23.372;2023-04-29T06:30:43;95173.38;;;15.94;56.84
8075;BME280;4080;42.676;23.372;2023-04-29T06:33:10;95175.13;;;15.84;57.55
8075;BME280;4080;42.676;23.372;2023-04-29T06:35:38;95168.63;;;15.91;58.56
8075;BME280;4080;42.676;23.372;2023-04-29T06:38:05;95165.69;;;15.92;57.80
8075;BME280;4080;42.676;23.372;2023-04-29T06:40:33;95164.88;;;15.92;57.63
8075;BME280;4080;42.676;23.372;2023-04-29T06:43:00;95164.09;;;15.91;57.63
8075;BME280;4080;42.676;23.372;2023-04-29T06:45:28;95161.91;;;16.07;58.47
8075;BME280;4080;42.676;23.372;2023-04-29T06:47:56;95158.91;;;16.22;58.21
8075;BME280;4080;42.676;23.372;2023-04-29T06:50:23;95159.31;;;16.15;57.91
8075;BME280;4080;42.676;23.372;2023-04-29T06:52:50;95158.72;;;16.32;59.37
8075;BME280;4080;42.676;23.372;2023-04-29T06:55:17;95163.81;;;16.42;58.83
8075;BME280;4080;42.676;23.372;2023-04-29T06:57:44;95157.41;;;16.43;58.88
8075;BME280;4080;42.676;23.372;2023-04-29T07:00:11;95158.84;;;16.27;59.47
8075;BME280;4080;42.676;23.372;2023-04-29T07:02:38;95107.84;;;15.57;60.37
8075;BME280;4080;42.676;23.372;2023-04-29T07:05:07;95147.53;;;15.53;62.26
8075;BME280;4080;42.676;23.372;2023-04-29T07:07:33;95142.41;;;15.43;63.34
8075;BME280;4080;42.676;23.372;2023-04-29T07:10:00;95144.38;;;15.37;63.86
8075;BME280;4080;42.676;23.372;2023-04-29T07:12:27;95143.16;;;15.30;63.59
8075;BME280;4080;42.676;23.372;2023-04-29T07:14:53;95144.22;;;15.15;63.73
8075;BME280;4080;42.676;23.372;2023-04-29T07:17:20;95143.94;;;15.03;64.82
8075;BME280;4080;42.676;23.372;2023-04-29T07:19:47;95128.13;;;14.93;65.30
8075;BME280;4080;42.676;23.372;2023-04-29T07:22:15;95140.47;;;15.02;65.36
8075;BME280;4080;42.676;23.372;2023-04-29T07:24:42;95139.09;;;15.05;64.71
8075;BME280;4080;42.676;23.372;2023-04-29T07:27:08;95133.50;;;15.06;65.14
8075;BME280;4080;42.676;23.372;2023-04-29T07:29:35;95133.75;;;15.37;64.81
8075;BME280;4080;42.676;23.372;2023-04-29T07:32:03;95140.38;;;15.67;62.67
8075;BME280;4080;42.676;23.372;2023-04-29T07:34:29;95141.47;;;15.66;61.00
8075;BME280;4080;42.676;23.372;2023-04-29T07:36:56;95139.47;;;15.86;61.99
8075;BME280;4080;42.676;23.372;2023-04-29T07:39:24;95138.03;;;16.29;60.90
8075;BME280;4080;42.676;23.372;2023-04-29T07:41:51;95140.63;;;16.79;59.05
8075;BME280;4080;42.676;23.372;2023-04-29T07:44:17;95143.88;;;17.21;56.92
8075;BME280;4080;42.676;23.372;2023-04-29T07:46:44;95143.41;;;17.58;57.38
8075;BME280;4080;42.676;23.372;2023-04-29T07:49:11;95145.13;;;17.94;54.25
8075;BME280;4080;42.676;23.372;2023-04-29T07:51:40;95138.91;;;18.16;53.57
8075;BME280;4080;42.676;23.372;2023-04-29T07:54:06;95121.16;;;18.28;52.53
8075;BME280;4080;42.676;23.372;2023-04-29T07:56:34;95132.34;;;18.65;49.84
8075;BME280;4080;42.676;23.372;2023-04-29T07:59:01;95107.31;;;18.61;49.94
8075;BME280;4080;42.676;23.372;2023-04-29T08:01:28;95127.13;;;18.95;49.52
8075;BME280;4080;42.676;23.372;2023-04-29T08:03:54;95123.44;;;19.25;48.80
8075;BME280;4080;42.676;23.372;2023-04-29T08:06:21;95130.00;;;19.45;47.34
8075;BME280;4080;42.676;23.372;2023-04-29T08:08:48;95127.25;;;19.71;46.59
8075;BME280;4080;42.676;23.372;2023-04-29T08:11:15;95133.44;;;19.92;46.73
8075;BME280;4080;42.676;23.372;2023-04-29T08:13:45;95125.69;;;19.99;45.93
8075;BME280;4080;42.676;23.372;2023-04-29T08:16:12;95125.09;;;20.14;45.89
8075;BME280;4080;42.676;23.372;2023-04-29T08:18:39;95124.97;;;20.40;45.05
8075;BME280;4080;42.676;23.372;2023-04-29T08:21:05;95117.81;;;20.65;44.23
8075;BME280;4080;42.676;23.372;2023-04-29T08:23:33;95111.16;;;20.71;43.07
8075;BME280;4080;42.676;23.372;2023-04-29T08:26:00;95109.34;;;20.63;42.53
8075;BME280;4080;42.676;23.372;2023-04-29T08:28:28;95089.53;;;20.56;43.68
8075;BME280;4080;42.676;23.372;2023-04-29T08:30:56;95117.50;;;20.46;41.12
8075;BME280;4080;42.676;23.372;2023-04-29T08:33:22;95111.66;;;20.23;40.42
8075;BME280;4080;42.676;23.372;2023-04-29T08:35:56;95097.28;;;20.28;39.66
8075;BME280;4080;42.676;23.372;2023-04-29T08:38:24;95103.72;;;20.56;39.94
8075;BME280;4080;42.676;23.372;2023-04-29T08:40:52;95111.22;;;20.84;39.25
8075;BME280;4080;42.676;23.372;2023-04-29T08:43:19;95107.78;;;20.95;39.47
8075;BME280;4080;42.676;23.372;2023-04-29T08:45:47;95111.00;;;20.89;35.90
8075;BME280;4080;42.676;23.372;2023-04-29T08:48:16;95051.97;;;20.23;36.35
8075;BME280;4080;42.676;23.372;2023-04-29T08:50:43;95090.44;;;20.39;39.39
8075;BME280;4080;42.676;23.372;2023-04-29T08:53:11;95097.63;;;20.47;36.94
8075;BME280;4080;42.676;23.372;2023-04-29T08:55:40;95079.88;;;20.42;39.99
8075;BME280;4080;42.676;23.372;2023-04-29T08:58:08;95084.84;;;20.53;40.34
8075;BME280;4080;42.676;23.372;2023-04-29T09:00:35;95087.09;;;20.84;40.40
8075;BME280;4080;42.676;23.372;2023-04-29T09:03:11;95081.94;;;21.24;37.64
8075;BME280;4080;42.676;23.372;2023-04-29T09:05:42;95080.63;;;21.42;35.88
8075;BME280;4080;42.676;23.372;2023-04-29T09:08:11;95044.13;;;21.17;35.31
8075;BME280;4080;42.676;23.372;2023-04-29T09:10:38;95077.25;;;21.33;34.04
8075;BME280;4080;42.676;23.372;2023-04-29T09:13:05;95070.03;;;21.46;34.15
8075;BME280;4080;42.676;23.372;2023-04-29T09:15:35;95069.47;;;21.52;34.33
8075;BME280;4080;42.676;23.372;2023-04-29T09:21:36;95072.13;;;21.64;33.47
8075;BME280;4080;42.676;23.372;2023-04-29T09:24:03;95064.41;;;21.87;33.79
8075;BME280;4080;42.676;23.372;2023-04-29T09:26:41;95063.25;;;22.00;32.96
8075;BME280;4080;42.676;23.372;2023-04-29T09:29:10;95055.53;;;22.23;34.10
8075;BME280;4080;42.676;23.372;2023-04-29T09:31:38;95063.59;;;22.51;32.22
8075;BME280;4080;42.676;23.372;2023-04-29T09:34:06;95060.81;;;22.48;32.22
8075;BME280;4080;42.676;23.372;2023-04-29T09:36:42;95060.66;;;22.28;33.02
8075;BME280;4080;42.676;23.372;2023-04-29T09:39:11;95042.88;;;21.99;34.74
8075;BME280;4080;42.676;23.372;2023-04-29T09:41:40;95041.59;;;21.69;34.94
8075;BME280;4080;42.676;23.372;2023-04-29T09:44:08;95045.75;;;21.79;35.09
8075;BME280;4080;42.676;23.372;2023-04-29T09:46:37;95042.09;;;21.99;34.37
8075;BME280;4080;42.676;23.372;2023-04-29T09:49:21;95041.22;;;22.19;34.91
8075;BME280;4080;42.676;23.372;2023-04-29T09:51:54;95044.88;;;22.27;33.95
8075;BME280;4080;42.676;23.372;2023-04-29T09:54:22;95034.91;;;22.27;32.96
8075;BME280;4080;42.676;23.372;2023-04-29T09:56:51;95032.09;;;22.36;34.62
8075;BME280;4080;42.676;23.372;2023-04-29T09:59:17;95021.13;;;22.29;34.36
8075;BME280;4080;42.676;23.372;2023-04-29T10:01:47;95025.66;;;22.13;34.05
8075;BME280;4080;42.676;23.372;2023-04-29T10:04:16;95015.59;;;21.97;34.20
8075;BME280;4080;42.676;23.372;2023-04-29T10:06:44;95021.44;;;21.87;34.16
8075;BME280;4080;42.676;23.372;2023-04-29T10:09:14;94987.41;;;21.91;33.84
8075;BME280;4080;42.676;23.372;2023-04-29T10:11:41;95004.81;;;22.22;33.54
8075;BME280;4080;42.676;23.372;2023-04-29T10:14:11;95007.69;;;21.89;34.23
8075;BME280;4080;42.676;23.372;2023-04-29T10:16:44;95007.91;;;21.72;34.79
8075;BME280;4080;42.676;23.372;2023-04-29T10:19:14;94992.41;;;21.53;35.90
8075;BME280;4080;42.676;23.372;2023-04-29T10:21:44;94994.88;;;21.46;35.42
8075;BME280;4080;42.676;23.372;2023-04-29T10:24:13;94991.28;;;21.54;35.99
8075;BME280;4080;42.676;23.372;2023-04-29T10:26:42;94985.66;;;21.71;36.92
8075;BME280;4080;42.676;23.372;2023-04-29T10:29:10;94985.88;;;21.78;32.69
8075;BME280;4080;42.676;23.372;2023-04-29T10:31:40;94950.50;;;21.48;34.69
8075;BME280;4080;42.676;23.372;2023-04-29T10:34:09;94968.56;;;21.63;33.63
8075;BME280;4080;42.676;23.372;2023-04-29T10:36:37;94987.47;;;21.79;33.46
8075;BME280;4080;42.676;23.372;2023-04-29T10:39:09;94971.78;;;21.69;32.85
8075;BME280;4080;42.676;23.372;2023-04-29T10:41:44;94942.09;;;21.50;33.50
8075;BME280;4080;42.676;23.372;2023-04-29T10:44:11;94951.38;;;21.52;34.29
8075;BME280;4080;42.676;23.372;2023-04-29T10:46:38;94975.69;;;21.72;32.52
8075;BME280;4080;42.676;23.372;2023-04-29T10:49:06;94980.75;;;21.61;31.28
8075;BME280;4080;42.676;23.372;2023-04-29T10:51:33;94981.22;;;21.51;32.40
8075;BME280;4080;42.676;23.372;2023-04-29T10:54:02;94983.34;;;21.33;31.02
8075;BME280;4080;42.676;23.372;2023-04-29T10:56:39;94979.53;;;21.22;31.96
8075;BME280;4080;42.676;23.372;2023-04-29T10:59:13;94976.06;;;21.09;33.03
8075;BME280;4080;42.676;23.372;2023-04-29T11:01:43;94973.59;;;20.92;31.38
8075;BME280;4080;42.676;23.372;2023-04-29T11:04:11;94971.47;;;20.85;31.08
8075;BME280;4080;42.676;23.372;2023-04-29T11:06:42;94964.66;;;20.88;29.85
8075;BME280;4080;42.676;23.372;2023-04-29T11:09:12;94966.44;;;20.96;30.46
8075;BME280;4080;42.676;23.372;2023-04-29T11:11:42;94970.81;;;21.00;30.88
8075;BME280;4080;42.676;23.372;2023-04-29T11:14:12;94955.84;;;20.87;33.41
8075;BME280;4080;42.676;23.372;2023-04-29T11:16:46;94962.97;;;21.07;34.65
8075;BME280;4080;42.676;23.372;2023-04-29T11:19:14;94965.66;;;20.95;33.53
8075;BME280;4080;42.676;23.372;2023-04-29T11:21:43;94952.38;;;20.87;33.90
8075;BME280;4080;42.676;23.372;2023-04-29T11:24:10;94964.41;;;20.81;32.83
8075;BME280;4080;42.676;23.372;2023-04-29T11:26:39;94961.81;;;20.72;32.15
8075;BME280;4080;42.676;23.372;2023-04-29T11:29:07;94949.38;;;20.43;31.60
8075;BME280;4080;42.676;23.372;2023-04-29T11:31:36;94967.84;;;20.36;32.11
8075;BME280;4080;42.676;23.372;2023-04-29T11:34:03;94959.97;;;20.19;32.04
8075;BME280;4080;42.676;23.372;2023-04-29T11:36:31;94956.94;;;20.08;32.36
8075;BME280;4080;42.676;23.372;2023-04-29T11:38:59;94957.91;;;20.03;33.44
8075;BME280;4080;42.676;23.372;2023-04-29T11:41:26;94957.78;;;20.00;34.23
8075;BME280;4080;42.676;23.372;2023-04-29T11:43:55;94946.75;;;20.01;33.97
8075;BME280;4080;42.676;23.372;2023-04-29T11:46:23;94945.91;;;19.89;32.96
8075;BME280;4080;42.676;23.372;2023-04-29T11:48:51;94956.56;;;19.97;32.58
8075;BME280;4080;42.676;23.372;2023-04-29T11:51:18;94951.66;;;19.99;33.47
8075;BME280;4080;42.676;23.372;2023-04-29T11:53:45;94961.69;;;20.02;33.30
8075;BME280;4080;42.676;23.372;2023-04-29T11:56:12;94943.53;;;19.87;33.22
8075;BME280;4080;42.676;23.372;2023-04-29T11:58:41;94951.78;;;19.82;33.78
8075;BME280;4080;42.676;23.372;2023-04-29T12:01:07;94944.47;;;19.70;34.79
8075;BME280;4080;42.676;23.372;2023-04-29T12:03:34;94941.59;;;19.54;35.50
8075;BME280;4080;42.676;23.372;2023-04-29T12:06:03;94950.31;;;19.43;36.36
8075;BME280;4080;42.676;23.372;2023-04-29T12:08:30;94950.56;;;19.29;36.28
8075;BME280;4080;42.676;23.372;2023-04-29T12:10:58;94938.38;;;19.11;37.93
8075;BME280;4080;42.676;23.372;2023-04-29T12:13:28;94951.41;;;19.12;39.63
8075;BME280;4080;42.676;23.372;2023-04-29T12:15:56;94946.59;;;19.06;40.29
8075;BME280;4080;42.676;23.372;2023-04-29T12:18:23;94948.34;;;19.02;42.01
8075;BME280;4080;42.676;23.372;2023-04-29T12:20:52;94943.63;;;18.99;41.05
8075;BME280;4080;42.676;23.372;2023-04-29T12:23:22;94921.50;;;18.89;40.45
8075;BME280;4080;42.676;23.372;2023-04-29T12:25:52;94895.94;;;18.80;40.78
8075;BME280;4080;42.676;23.372;2023-04-29T12:28:19;94925.53;;;19.04;40.16
8075;BME280;4080;42.676;23.372;2023-04-29T12:30:47;94935.09;;;19.05;39.51
8075;BME280;4080;42.676;23.372;2023-04-29T12:33:21;94915.22;;;18.85;40.10
8075;BME280;4080;42.676;23.372;2023-04-29T12:35:48;94922.72;;;18.92;40.31
8075;BME280;4080;42.676;23.372;2023-04-29T12:38:21;94925.84;;;19.03;40.71
8075;BME280;4080;42.676;23.372;2023-04-29T12:40:48;94897.50;;;18.81;41.08
8075;BME280;4080;42.676;23.372;2023-04-29T12:43:16;94916.16;;;18.89;41.58
8075;BME280;4080;42.676;23.372;2023-04-29T12:45:43;94925.72;;;18.90;42.23
8075;BME280;4080;42.676;23.372;2023-04-29T12:48:10;94918.22;;;18.84;41.67
8075;BME280;4080;42.676;23.372;2023-04-29T12:50:38;94919.28;;;18.91;41.10
8075;BME280;4080;42.676;23.372;2023-04-29T12:53:06;94908.13;;;18.89;41.55
8075;BME280;4080;42.676;23.372;2023-04-29T12:55:36;94904.63;;;18.98;40.94
8075;BME280;4080;42.676;23.372;2023-04-29T12:58:05;94905.69;;;19.05;41.18
8075;BME280;4080;42.676;23.372;2023-04-29T13:00:33;94909.78;;;19.32;40.77
8075;BME280;4080;42.676;23.372;2023-04-29T13:03:01;94902.22;;;19.34;40.68
8075;BME280;4080;42.676;23.372;2023-04-29T13:05:28;94914.09;;;19.45;41.23
8075;BME280;4080;42.676;23.372;2023-04-29T13:07:55;94859.34;;;19.22;41.97
8075;BME280;4080;42.676;23.372;2023-04-29T13:10:22;94906.44;;;19.65;41.95
8075;BME280;4080;42.676;23.372;2023-04-29T13:12:50;94911.47;;;19.66;41.17
8075;BME280;4080;42.676;23.372;2023-04-29T13:15:17;94911.13;;;19.68;41.40
8075;BME280;4080;42.676;23.372;2023-04-29T13:17:43;94914.06;;;19.75;41.72
8075;BME280;4080;42.676;23.372;2023-04-29T13:20:11;94920.66;;;19.77;41.01